createdAt,value
2023-05-25T00:02:35.856Z,11.88
2023-05-25T00:06:58.000Z,11.45
2023-05-25T00:11:20.288Z,12.00
2023-05-25T00:15:42.866Z,13.20
2023-05-25T00:20:09.656Z,11.18
2023-05-25T00:24:31.915Z,12.90
2023-05-25T00:28:54.314Z,11.90
2023-05-25T00:33:16.978Z,11.98
2023-05-25T00:37:38.812Z,12.73
2023-05-25T00:42:03.394Z,13.13
2023-05-25T00:46:27.026Z,12.57
2023-05-25T00:50:50.883Z,12.75
2023-05-25T00:55:16.842Z,14.23
2023-05-25T00:59:44.981Z,11.95
2023-05-25T01:04:11.426Z,14.00
2023-05-25T01:08:36.188Z,14.05
2023-05-25T01:13:02.232Z,14.05
2023-05-25T01:17:25.647Z,13.32
2023-05-25T01:22:22.448Z,12.30
2023-05-25T01:27:11.621Z,14.02
2023-05-25T01:31:46.656Z,13.68
2023-05-25T01:36:16.639Z,13.95
2023-05-25T01:40:47.703Z,14.10
2023-05-25T01:45:15.021Z,12.90
2023-05-25T01:50:28.575Z,14.27
2023-05-25T01:55:37.075Z,12.88
2023-05-25T02:00:04.916Z,14.77
2023-05-25T02:04:40.252Z,14.95
2023-05-25T02:09:35.803Z,13.93
2023-05-25T02:13:51.862Z,14.18
2023-05-25T02:18:17.979Z,14.40
2023-05-25T02:22:43.387Z,14.00
2023-05-25T02:27:30.781Z,13.93
2023-05-25T02:32:02.656Z,15.63
2023-05-25T02:36:28.623Z,14.40
2023-05-25T02:40:53.858Z,14.63
2023-05-25T02:45:17.108Z,12.93
2023-05-25T02:49:39.195Z,15.00
2023-05-25T02:54:01.757Z,14.32
2023-05-25T02:58:27.809Z,15.23
2023-05-25T03:03:05.794Z,15.75
2023-05-25T03:07:29.161Z,16.10
2023-05-25T03:11:51.500Z,15.35
2023-05-25T03:16:16.039Z,14.65
2023-05-25T03:20:38.468Z,14.18
2023-05-25T03:25:00.458Z,15.80
2023-05-25T03:29:22.543Z,15.95
2023-05-25T03:33:44.681Z,20.77
2023-05-25T03:38:07.359Z,15.25
2023-05-25T03:42:38.101Z,15.00
2023-05-25T03:47:04.283Z,16.05
2023-05-25T03:51:28.639Z,14.38
2023-05-25T03:55:54.146Z,13.25
2023-05-25T04:00:17.167Z,11.30
2023-05-25T04:04:42.129Z,10.95
2023-05-25T04:09:07.354Z,8.68
2023-05-25T04:13:29.376Z,6.65
2023-05-25T04:17:51.914Z,6.13
2023-05-25T04:22:14.039Z,6.95
2023-05-25T04:26:39.580Z,5.30
2023-05-25T04:31:01.977Z,5.10
2023-05-25T04:35:43.033Z,5.45
2023-05-25T04:40:14.419Z,4.95
2023-05-25T04:44:38.815Z,4.85
2023-05-25T04:49:01.763Z,5.35
2023-05-25T04:53:24.075Z,4.50
2023-05-25T04:57:47.290Z,4.57
2023-05-25T05:02:09.164Z,4.50
2023-05-25T05:06:33.192Z,4.07
2023-05-25T05:10:55.927Z,4.88
2023-05-25T05:15:19.538Z,5.50
2023-05-25T05:19:44.522Z,4.68
2023-05-25T05:24:07.635Z,4.82
2023-05-25T05:28:30.097Z,4.35
2023-05-25T05:32:53.895Z,5.63
2023-05-25T05:37:18.217Z,5.22
2023-05-25T05:41:44.156Z,4.50
2023-05-25T05:46:06.534Z,5.22
2023-05-25T05:50:28.458Z,4.95
2023-05-25T05:54:50.392Z,4.57
2023-05-25T05:59:12.706Z,4.97
2023-05-25T06:03:34.997Z,4.53
2023-05-25T06:07:57.188Z,4.88
2023-05-25T06:12:19.024Z,4.80
2023-05-25T06:16:41.378Z,4.40
2023-05-25T06:21:03.965Z,4.85
2023-05-25T06:25:25.947Z,4.80
2023-05-25T06:29:47.985Z,5.05
2023-05-25T06:34:09.827Z,3.90
2023-05-25T06:38:32.422Z,4.22
2023-05-25T06:42:55.263Z,4.72
2023-05-25T06:47:38.808Z,4.45
2023-05-25T06:52:00.921Z,4.43
2023-05-25T06:56:23.754Z,3.78
2023-05-25T07:00:46.838Z,3.92
2023-05-25T07:05:09.586Z,3.53
2023-05-25T07:09:31.522Z,3.60
2023-05-25T07:13:53.534Z,3.13
2023-05-25T07:18:16.396Z,3.05
2023-05-25T07:22:38.437Z,3.50
2023-05-25T07:27:02.205Z,4.28
2023-05-25T07:31:24.464Z,2.95
2023-05-25T07:35:47.011Z,3.45
2023-05-25T07:40:09.821Z,3.30
2023-05-25T07:44:31.861Z,3.47
2023-05-25T07:48:54.921Z,3.47
2023-05-25T07:53:16.865Z,3.40
2023-05-25T07:57:38.697Z,2.83
2023-05-25T08:02:00.756Z,3.05
2023-05-25T08:06:23.493Z,2.90
2023-05-25T08:10:45.664Z,3.67
2023-05-25T08:15:08.441Z,3.08
2023-05-25T08:19:33.755Z,2.85
2023-05-25T08:23:56.704Z,3.10
2023-05-25T08:28:18.805Z,3.20
2023-05-25T08:32:40.888Z,4.15
2023-05-25T08:37:02.922Z,3.53
2023-05-25T08:41:25.025Z,3.60
2023-05-25T08:45:47.578Z,3.22
2023-05-25T08:50:11.996Z,3.53
2023-05-25T08:54:38.315Z,3.38
2023-05-25T08:59:15.938Z,3.10
2023-05-25T09:03:38.592Z,3.15
2023-05-25T09:08:01.175Z,3.30
2023-05-25T09:12:24.140Z,3.50
2023-05-25T09:16:47.838Z,3.30
2023-05-25T09:21:10.111Z,3.20
2023-05-25T09:25:33.997Z,3.25
2023-05-25T09:30:00.232Z,3.58
2023-05-25T09:34:22.479Z,3.80
2023-05-25T09:38:45.961Z,3.25
2023-05-25T09:43:08.490Z,3.38
2023-05-25T09:47:30.972Z,3.88
2023-05-25T09:51:53.674Z,3.38
2023-05-25T09:56:17.617Z,3.08
2023-05-25T10:00:39.501Z,3.55
2023-05-25T10:05:01.751Z,4.43
2023-05-25T10:09:26.151Z,3.25
2023-05-25T10:13:50.600Z,3.42
2023-05-25T10:18:16.078Z,3.38
2023-05-25T10:22:55.323Z,3.80
2023-05-25T10:27:27.574Z,3.47
2023-05-25T10:31:51.318Z,3.30
2023-05-25T10:36:14.741Z,3.42
2023-05-25T10:40:38.552Z,3.28
2023-05-25T10:45:00.879Z,3.35
2023-05-25T10:49:52.037Z,3.25
2023-05-25T10:54:15.354Z,3.17
2023-05-25T10:58:46.668Z,3.35
2023-05-25T11:03:10.450Z,3.17
2023-05-25T11:07:32.214Z,3.75
2023-05-25T11:12:03.200Z,3.60
2023-05-25T11:16:30.807Z,4.03
2023-05-25T11:21:22.267Z,3.78
2023-05-25T11:25:44.958Z,4.07
2023-05-25T11:30:08.025Z,4.47
2023-05-25T11:34:34.511Z,4.60
2023-05-25T11:43:26.866Z,4.03
2023-05-25T11:47:49.357Z,3.67
2023-05-25T11:52:14.491Z,4.53
2023-05-25T11:56:37.275Z,4.65
2023-05-25T12:01:23.652Z,3.85
2023-05-25T12:05:46.311Z,4.93
2023-05-25T12:10:13.737Z,4.53
2023-05-25T12:14:41.654Z,4.20
2023-05-25T12:19:04.116Z,4.55
2023-05-25T12:23:26.605Z,5.10
2023-05-25T12:27:48.872Z,4.70
2023-05-25T12:32:10.989Z,4.88
2023-05-25T12:36:54.060Z,4.88
2023-05-25T12:41:16.274Z,4.38
2023-05-25T12:45:43.309Z,4.10
2023-05-25T12:50:14.910Z,4.00
2023-05-25T12:54:43.943Z,3.85
2023-05-25T12:59:15.761Z,3.88
2023-05-25T13:03:37.908Z,3.67
2023-05-25T13:08:00.466Z,3.72
2023-05-25T13:12:22.896Z,4.40
2023-05-25T13:16:46.492Z,5.65
2023-05-25T13:21:09.586Z,5.45
2023-05-25T13:25:31.955Z,5.00
2023-05-25T13:29:53.883Z,5.05
2023-05-25T13:34:16.196Z,5.50
2023-05-25T13:38:38.651Z,4.45
2023-05-25T13:43:00.620Z,5.10
2023-05-25T13:47:22.685Z,4.95
2023-05-25T13:51:44.725Z,4.18
2023-05-25T13:56:07.126Z,5.20
2023-05-25T14:00:29.017Z,4.68
2023-05-25T14:04:50.937Z,6.10
2023-05-25T14:09:13.648Z,5.13
2023-05-25T14:13:36.761Z,4.38
2023-05-25T14:17:59.152Z,4.07
2023-05-25T14:22:21.239Z,4.70
2023-05-25T14:26:43.895Z,4.90
2023-05-25T14:31:06.432Z,4.50
2023-05-25T14:35:28.517Z,4.65
2023-05-25T14:39:50.705Z,5.45
2023-05-25T14:44:12.636Z,5.20
2023-05-25T14:48:34.478Z,5.30
2023-05-25T14:52:56.558Z,4.93
2023-05-25T14:57:19.018Z,4.15
2023-05-25T15:01:41.212Z,4.85
2023-05-25T15:06:03.520Z,4.70
2023-05-25T15:10:25.693Z,4.60
2023-05-25T15:14:48.030Z,4.45
2023-05-25T15:19:12.778Z,4.70
2023-05-25T15:23:36.838Z,4.45
2023-05-25T15:27:58.939Z,4.38
2023-05-25T15:32:21.299Z,4.97
2023-05-25T15:36:43.117Z,4.82
2023-05-25T15:41:05.383Z,4.50
2023-05-25T15:45:27.141Z,5.38
2023-05-25T15:49:49.317Z,5.43
2023-05-25T15:54:14.747Z,5.32
2023-05-25T15:58:37.242Z,4.78
2023-05-25T16:02:59.299Z,4.78
2023-05-25T16:07:21.725Z,4.93
2023-05-25T16:11:43.766Z,4.75
2023-05-25T16:16:06.115Z,5.35
2023-05-25T16:20:28.259Z,5.53
2023-05-25T16:24:50.380Z,4.85
2023-05-25T16:29:12.318Z,5.28
2023-05-25T16:33:34.938Z,4.97
2023-05-25T16:37:57.265Z,4.72
2023-05-25T16:42:20.133Z,5.07
2023-05-25T16:46:42.183Z,5.30
2023-05-25T16:51:04.333Z,5.03
2023-05-25T16:55:26.284Z,5.35
2023-05-25T16:59:48.318Z,5.68
2023-05-25T17:04:10.275Z,5.72
2023-05-25T17:08:32.346Z,5.75
2023-05-25T17:12:54.475Z,4.88
2023-05-25T17:17:16.717Z,5.30
2023-05-25T17:21:38.727Z,6.10
2023-05-25T17:26:00.627Z,6.13
2023-05-25T17:30:22.871Z,5.25
2023-05-25T17:34:55.113Z,4.78
2023-05-25T17:39:17.636Z,5.18
2023-05-25T17:43:39.921Z,4.75
2023-05-25T17:48:02.192Z,5.30
2023-05-25T17:52:24.180Z,4.20
2023-05-25T17:56:46.915Z,5.20
2023-05-25T18:01:08.998Z,4.18
2023-05-25T18:05:31.048Z,8.93
2023-05-25T18:09:52.924Z,4.60
2023-05-25T18:14:15.138Z,5.22
2023-05-25T18:18:37.505Z,5.13
2023-05-25T18:22:59.617Z,5.20
2023-05-25T18:27:21.960Z,4.95
2023-05-25T18:31:47.375Z,5.00
2023-05-25T18:36:09.673Z,4.35
2023-05-25T18:40:31.855Z,5.32
2023-05-25T18:44:54.199Z,4.35
2023-05-25T18:49:16.928Z,5.07
2023-05-25T18:53:39.774Z,6.25
2023-05-25T18:58:01.945Z,5.63
2023-05-25T19:02:24.357Z,5.97
2023-05-25T19:06:46.932Z,8.52
2023-05-25T19:11:08.890Z,7.03
2023-05-25T19:15:30.666Z,6.88
2023-05-25T19:19:52.914Z,7.57
2023-05-25T19:24:15.176Z,6.40
2023-05-25T19:28:37.476Z,7.65
2023-05-25T19:32:59.450Z,7.00
2023-05-25T19:37:21.800Z,7.40
2023-05-25T19:41:43.657Z,6.70
2023-05-25T19:46:07.573Z,7.38
2023-05-25T19:50:31.152Z,7.93
2023-05-25T19:54:52.996Z,8.18
2023-05-25T19:59:15.233Z,8.50
2023-05-25T20:03:37.506Z,10.98
2023-05-25T20:07:59.677Z,8.90
2023-05-25T20:12:22.049Z,9.45
2023-05-25T20:16:45.973Z,8.90
2023-05-25T20:21:08.013Z,9.32
2023-05-25T20:25:30.372Z,9.93
2023-05-25T20:29:52.694Z,9.80
2023-05-25T20:34:14.958Z,9.82
2023-05-25T20:38:36.833Z,9.20
2023-05-25T20:42:59.054Z,9.02
2023-05-25T20:47:21.325Z,9.32
2023-05-25T20:51:50.069Z,9.82
2023-05-25T20:56:12.092Z,10.27
2023-05-25T21:00:34.399Z,10.52
2023-05-25T21:04:56.650Z,10.38
2023-05-25T21:09:18.922Z,11.40
2023-05-25T21:13:41.204Z,10.90
2023-05-25T21:18:03.720Z,11.07
2023-05-25T21:22:25.898Z,10.23
2023-05-25T21:26:47.656Z,10.63
2023-05-25T21:31:10.068Z,11.63
2023-05-25T21:35:32.220Z,9.98
2023-05-25T21:39:54.572Z,10.85
2023-05-25T21:44:16.881Z,11.02
2023-05-25T21:48:38.997Z,10.93
2023-05-25T21:53:00.736Z,12.80
2023-05-25T21:57:22.942Z,12.10
2023-05-25T22:01:44.969Z,11.52
2023-05-25T22:06:07.323Z,11.43
2023-05-25T22:10:29.731Z,11.32
2023-05-25T22:14:51.769Z,11.85
2023-05-25T22:19:13.873Z,11.73
2023-05-25T22:23:36.106Z,11.90
2023-05-25T22:28:01.894Z,11.60
2023-05-25T22:32:33.386Z,11.48
2023-05-25T22:37:16.915Z,10.80
2023-05-25T22:41:42.514Z,11.13
2023-05-25T22:46:04.678Z,11.32
2023-05-25T22:50:26.917Z,10.52
2023-05-25T22:54:49.094Z,11.30
2023-05-25T22:59:12.394Z,11.05
2023-05-25T23:03:34.693Z,11.15
2023-05-25T23:07:58.798Z,10.13
2023-05-25T23:12:21.053Z,9.57
2023-05-25T23:16:45.456Z,9.23
2023-05-25T23:21:07.777Z,10.15
2023-05-25T23:25:29.628Z,10.50
2023-05-25T23:29:51.760Z,9.05
2023-05-25T23:34:13.725Z,10.07
2023-05-25T23:38:36.395Z,10.43
2023-05-25T23:42:58.535Z,9.68
2023-05-25T23:47:20.641Z,10.52
2023-05-25T23:51:42.489Z,9.52
2023-05-25T23:56:14.218Z,10.82
